Time;durP1;ratioP1;P1;durP2;ratioP2;P2;SDS_P1;SDS_P2;PMS_P1;PMS_P2;Temp;Humidity;BMP_temperature;BMP_pressure;BME280_temperature;BME280_humidity;BME280_pressure;Samples;Min_cycle;Max_cycle;Signal;HPM_P1;HPM_P2
2023/10/17 00:01:44;;;;;;;13.83;8.03;;;7.00;82.10;;;;;;5074016;28;20044;-89
2023/10/17 00:06:51;;;;;;;12.77;7.93;;;7.00;82.10;;;;;;5125162;28;20121;-88
2023/10/17 00:09:29;;;;;;;14.77;7.93;;;6.90;82.10;;;;;;5073698;28;20085;-89
2023/10/17 00:14:35;;;;;;;12.83;7.47;;;6.90;82.10;;;;;;5091041;28;20087;-89
2023/10/17 00:17:04;;;;;;;14.07;6.87;;;6.90;81.90;;;;;;5090508;28;20363;-89
2023/10/17 00:19:33;;;;;;;10.73;6.93;;;6.90;82.00;;;;;;5073952;28;20059;-89
2023/10/17 00:22:02;;;;;;;9.40;6.87;;;6.90;81.90;;;;;;5053610;28;20451;-89
2023/10/17 00:24:29;;;;;;;11.73;7.50;;;6.90;81.80;;;;;;5091263;28;20044;-89
2023/10/17 00:26:55;;;;;;;15.07;7.83;;;6.90;82.00;;;;;;5077015;28;20032;-88
2023/10/17 00:29:21;;;;;;;12.93;7.40;;;6.90;82.10;;;;;;5094982;28;20075;-90
2023/10/17 00:31:46;;;;;;;11.97;8.27;;;6.90;82.20;;;;;;5092856;28;20086;-89
2023/10/17 00:34:23;;;;;;;18.27;8.63;;;6.90;82.30;;;;;;5094443;28;20032;-88
2023/10/17 00:36:59;;;;;;;12.97;9.03;;;6.90;82.40;;;;;;5094536;28;20123;-89
2023/10/17 00:39:32;;;;;;;13.50;8.37;;;6.80;82.30;;;;;;5094334;28;20091;-89
2023/10/17 00:44:41;;;;;;;16.67;9.40;;;6.80;82.50;;;;;;5095739;28;20056;-89
2023/10/17 00:47:09;;;;;;;14.27;8.53;;;6.90;82.50;;;;;;5093460;28;20402;-89
2023/10/17 00:49:44;;;;;;;16.77;9.30;;;6.80;82.60;;;;;;5093963;28;20059;-89
2023/10/17 00:52:18;;;;;;;18.50;10.00;;;6.80;82.60;;;;;;5094255;28;20044;-89
2023/10/17 00:54:45;;;;;;;20.23;9.93;;;6.90;82.70;;;;;;5093594;28;20060;-89
2023/10/17 00:57:13;;;;;;;19.00;10.63;;;6.90;82.70;;;;;;5076528;28;20052;-90
2023/10/17 00:59:44;;;;;;;16.90;10.80;;;6.90;82.70;;;;;;5094259;28;20055;-90
2023/10/17 01:02:11;;;;;;;22.50;11.47;;;6.90;82.80;;;;;;5094353;28;20145;-89
2023/10/17 01:04:40;;;;;;;19.40;10.27;;;6.90;82.70;;;;;;5093460;28;20063;-91
2023/10/17 01:07:11;;;;;;;12.67;8.90;;;6.90;82.60;;;;;;5059513;28;20486;-89
2023/10/17 01:09:37;;;;;;;13.80;8.63;;;6.90;82.60;;;;;;5075406;28;20434;-90
2023/10/17 01:12:10;;;;;;;18.53;9.90;;;6.90;82.70;;;;;;5075607;28;20056;-90
2023/10/17 01:14:37;;;;;;;20.27;10.10;;;7.00;82.60;;;;;;5076011;28;20136;-90
2023/10/17 01:17:15;;;;;;;18.57;9.97;;;7.00;82.60;;;;;;5059258;28;20512;-89
2023/10/17 01:19:40;;;;;;;14.97;10.23;;;7.00;82.60;;;;;;5076437;28;20051;-90
2023/10/17 01:22:06;;;;;;;16.30;10.40;;;7.00;82.60;;;;;;5075589;28;20047;-89
2023/10/17 01:24:32;;;;;;;13.50;10.10;;;7.00;82.60;;;;;;5076117;28;20177;-89
2023/10/17 01:26:59;;;;;;;16.87;10.40;;;7.00;82.50;;;;;;5059155;28;20491;-89
2023/10/17 01:29:25;;;;;;;14.80;10.27;;;7.00;82.60;;;;;;5076744;28;20044;-89
2023/10/17 01:31:51;;;;;;;19.20;10.57;;;7.00;82.70;;;;;;5059604;28;20056;-88
2023/10/17 01:34:18;;;;;;;17.30;8.77;;;7.00;82.70;;;;;;5076514;28;20039;-90
2023/10/17 01:36:44;;;;;;;16.50;9.10;;;7.00;82.60;;;;;;5076116;28;20052;-89
2023/10/17 01:39:09;;;;;;;16.40;7.90;;;6.90;82.50;;;;;;5075530;28;20048;-89
2023/10/17 01:41:38;;;;;;;14.40;7.67;;;7.00;82.50;;;;;;5070854;28;20040;-89
2023/10/17 01:44:04;;;;;;;15.77;6.93;;;6.90;82.40;;;;;;5080117;28;20056;-89
2023/10/17 01:46:30;;;;;;;14.80;7.17;;;6.90;82.40;;;;;;5057833;28;20052;-89
2023/10/17 01:49:00;;;;;;;15.40;6.77;;;6.90;82.40;;;;;;5074934;28;20458;-91
2023/10/17 01:51:27;;;;;;;13.07;6.90;;;6.90;82.40;;;;;;5075388;28;20093;-89
2023/10/17 01:53:53;;;;;;;15.47;6.30;;;6.90;82.30;;;;;;5057923;28;20128;-91
2023/10/17 01:56:26;;;;;;;11.33;6.00;;;6.90;82.30;;;;;;5074661;28;20131;-89
2023/10/17 01:58:55;;;;;;;11.40;6.77;;;6.90;82.20;;;;;;5074827;28;20048;-89
2023/10/17 02:01:25;;;;;;;10.67;7.13;;;6.90;82.00;;;;;;5058192;28;20040;-89
2023/10/17 02:03:52;;;;;;;11.95;7.10;;;6.80;81.90;;;;;;5093530;28;20080;-89
2023/10/17 02:06:19;;;;;;;11.97;6.30;;;6.70;81.80;;;;;;5074707;28;20051;-90
2023/10/17 02:08:46;;;;;;;11.33;7.00;;;6.70;81.80;;;;;;5057940;28;20110;-87
2023/10/17 02:11:40;;;;;;;13.40;7.20;;;6.60;81.80;;;;;;5075019;28;20051;-92
2023/10/17 02:13:59;;;;;;;12.63;7.93;;;6.60;81.90;;;;;;5074495;28;20126;-89
2023/10/17 02:16:29;;;;;;;15.10;7.97;;;6.60;81.80;;;;;;5072516;28;20490;-89
2023/10/17 02:18:55;;;;;;;11.83;7.57;;;6.60;81.80;;;;;;5058894;28;20056;-89
2023/10/17 02:21:21;;;;;;;11.13;7.57;;;6.60;81.80;;;;;;5058641;28;20051;-91
2023/10/17 02:23:50;;;;;;;13.90;7.23;;;6.50;81.70;;;;;;5075101;28;20059;-89
2023/10/17 02:26:23;;;;;;;10.00;6.67;;;6.50;81.70;;;;;;5075497;28;20194;-88
2023/10/17 02:28:49;;;;;;;13.70;7.67;;;6.40;81.60;;;;;;5058868;28;20094;-89
2023/10/17 02:31:16;;;;;;;11.67;7.63;;;6.40;81.60;;;;;;5059130;28;20076;-89
2023/10/17 02:33:42;;;;;;;11.17;7.10;;;6.30;81.70;;;;;;5075547;28;20052;-89
2023/10/17 02:36:16;;;;;;;15.43;6.50;;;6.30;81.60;;;;;;5075530;28;20055;-89
2023/10/17 02:38:43;;;;;;;13.47;6.33;;;6.20;81.60;;;;;;5059066;28;20121;-89
2023/10/17 02:41:12;;;;;;;11.03;6.90;;;6.20;81.60;;;;;;5059093;28;20372;-89
2023/10/17 02:43:40;;;;;;;10.07;6.13;;;6.10;81.50;;;;;;5058632;28;20048;-89
2023/10/17 02:46:06;;;;;;;9.97;6.90;;;6.10;81.40;;;;;;5071080;28;20051;-90
2023/10/17 02:48:39;;;;;;;9.83;7.43;;;6.00;81.50;;;;;;5057155;28;20043;-90
2023/10/17 02:51:11;;;;;;;10.60;7.23;;;6.00;81.50;;;;;;5060940;28;20051;-89
2023/10/17 02:53:43;;;;;;;9.13;6.40;;;5.90;81.50;;;;;;5057046;28;20040;-90
2023/10/17 02:56:20;;;;;;;12.43;6.77;;;5.90;81.50;;;;;;5073567;28;20044;-89
2023/10/17 02:58:51;;;;;;;12.73;6.10;;;5.80;81.40;;;;;;5071614;28;20055;-88
2023/10/17 03:01:18;;;;;;;9.17;6.00;;;5.70;81.40;;;;;;5074362;28;20185;-89
2023/10/17 03:03:49;;;;;;;12.13;6.87;;;5.70;81.40;;;;;;5057919;28;20078;-89
2023/10/17 03:06:16;;;;;;;9.00;6.07;;;5.70;81.50;;;;;;5058025;28;20438;-89
2023/10/17 03:08:51;;;;;;;10.87;6.23;;;5.70;81.50;;;;;;5057663;28;20066;-89
2023/10/17 03:11:35;;;;;;;10.77;6.23;;;5.60;81.50;;;;;;5074161;28;20078;-89
2023/10/17 03:14:19;;;;;;;7.27;5.30;;;5.60;81.50;;;;;;5058277;28;20170;-89
2023/10/17 03:16:52;;;;;;;10.53;5.60;;;5.60;81.40;;;;;;5088095;28;20051;-91
2023/10/17 03:19:26;;;;;;;11.47;6.93;;;5.50;81.40;;;;;;5073889;28;20039;-90
2023/10/17 03:21:54;;;;;;;9.40;5.60;;;5.50;81.40;;;;;;5073928;28;20621;-90
2023/10/17 03:24:28;;;;;;;10.07;6.23;;;5.50;81.30;;;;;;5073828;28;20499;-90
2023/10/17 03:27:03;;;;;;;11.77;6.10;;;5.50;81.30;;;;;;5074788;28;20465;-89
2023/10/17 03:29:33;;;;;;;7.63;5.70;;;5.40;81.20;;;;;;5074349;28;20491;-89
2023/10/17 03:32:03;;;;;;;8.10;5.68;;;5.40;81.20;;;;;;5076096;28;20089;-90
2023/10/17 03:34:35;;;;;;;16.27;6.43;;;5.30;81.10;;;;;;5058271;28;20048;-89
2023/10/17 03:39:59;;;;;;;9.80;5.73;;;5.30;81.20;;;;;;5074911;28;20052;-89
2023/10/17 03:42:44;;;;;;;10.17;6.13;;;5.20;81.30;;;;;;5075964;28;20051;-90
2023/10/17 03:45:23;;;;;;;13.97;7.23;;;5.10;81.30;;;;;;5090405;28;20500;-88
2023/10/17 03:47:53;;;;;;;15.00;8.03;;;5.10;81.30;;;;;;5043277;28;20051;-90
2023/10/17 03:53:36;;;;;;;11.73;7.00;;;5.00;81.50;;;;;;5093150;28;20430;-87
2023/10/17 03:56:03;;;;;;;16.27;8.17;;;5.00;81.50;;;;;;5076395;28;20059;-87
2023/10/17 04:24:34;;;;;;;9.73;5.70;;;4.80;81.70;;;;;;5075499;28;20032;-88
2023/10/17 04:28:07;;;;;;;8.47;5.90;;;4.90;81.70;;;;;;5055148;28;20115;-88
2023/10/17 04:30:35;;;;;;;12.57;6.63;;;4.80;81.60;;;;;;5038241;28;20139;-88
2023/10/17 04:33:12;;;;;;;14.77;7.43;;;4.90;81.60;;;;;;5038347;28;20052;-88
2023/10/17 04:46:50;;;;;;;11.40;7.10;;;4.90;82.30;;;;;;5053179;28;20079;-88
2023/10/17 04:49:19;;;;;;;10.37;6.50;;;5.00;82.10;;;;;;5037799;28;20056;-88
2023/10/17 04:51:45;;;;;;;11.63;6.27;;;5.00;82.10;;;;;;5054153;28;20041;-88
2023/10/17 05:01:53;;;;;;;16.50;8.67;;;5.00;82.40;;;;;;5076160;28;20075;-88
2023/10/17 05:04:19;;;;;;;17.63;9.50;;;5.10;82.80;;;;;;5057772;28;20049;-88
2023/10/17 05:07:07;;;;;;;11.83;9.27;;;5.20;83.00;;;;;;5078389;28;20109;-88
2023/10/17 06:17:42;;;;;;;12.03;7.37;;;5.60;82.70;;;;;;5076927;28;20497;-89
2023/10/17 06:20:12;;;;;;;12.10;8.30;;;5.50;82.70;;;;;;5060213;28;20052;-89
2023/10/17 06:28:34;;;;;;;12.60;7.70;;;5.50;82.80;;;;;;5094254;28;20123;-90
2023/10/17 06:31:54;;;;;;;15.50;7.33;;;5.50;82.90;;;;;;5076564;28;20052;-88
2023/10/17 06:34:21;;;;;;;11.30;5.90;;;5.40;82.90;;;;;;5006927;28;20136;-93
2023/10/17 06:36:50;;;;;;;12.20;5.87;;;5.40;83.10;;;;;;5022522;28;20099;-89
2023/10/17 06:39:18;;;;;;;13.80;6.07;;;5.50;83.20;;;;;;5051121;28;20042;-89
2023/10/17 06:41:47;;;;;;;14.00;6.70;;;5.50;83.20;;;;;;5035241;28;20049;-89
2023/10/17 06:44:33;;;;;;;12.10;6.70;;;5.50;83.10;;;;;;5035410;28;20052;-88
2023/10/17 06:53:27;;;;;;;11.27;6.07;;;5.60;83.10;;;;;;5026397;28;20708;-89
2023/10/17 06:55:58;;;;;;;11.17;5.73;;;5.70;83.30;;;;;;5034242;28;20044;-89
2023/10/17 06:58:27;;;;;;;10.50;5.53;;;5.80;83.30;;;;;;5018062;28;20037;-89
2023/10/17 07:00:53;;;;;;;19.37;7.77;;;5.80;83.20;;;;;;5034949;28;20048;-89
2023/10/17 07:03:26;;;;;;;15.03;5.97;;;5.90;83.30;;;;;;5033563;28;20045;-89
2023/10/17 07:05:55;;;;;;;12.50;5.90;;;5.90;83.30;;;;;;5073681;28;20060;-89
2023/10/17 07:08:21;;;;;;;14.30;5.10;;;6.00;83.30;;;;;;5093063;28;20047;-88
2023/10/17 07:15:18;;;;;;;11.20;5.67;;;6.10;83.00;;;;;;5098227;28;20051;-89
2023/10/17 07:23:43;;;;;;;11.13;5.10;;;6.30;83.20;;;;;;5069911;28;20083;-89
2023/10/17 07:41:32;;;;;;;13.40;6.53;;;6.70;83.20;;;;;;5083919;28;20750;-92
2023/10/17 07:44:09;;;;;;;13.43;6.17;;;6.80;83.30;;;;;;5076727;28;20143;-94
2023/10/17 07:46:38;;;;;;;20.73;10.53;;;6.90;83.10;;;;;;5084360;28;21004;-92
2023/10/17 07:49:04;;;;;;;20.70;11.63;;;7.00;83.10;;;;;;5086257;28;20056;-88
2023/10/17 07:51:31;;;;;;;22.17;12.83;;;7.00;82.90;;;;;;5091033;28;20153;-95
2023/10/17 07:54:06;;;;;;;19.30;11.67;;;7.10;82.80;;;;;;5091950;28;20411;-88
2023/10/17 08:00:51;;;;;;;16.10;10.23;;;7.20;82.70;;;;;;5087861;28;20066;-90
2023/10/17 08:03:19;;;;;;;22.30;11.20;;;7.30;82.80;;;;;;5069699;28;20056;-91
2023/10/17 08:05:52;;;;;;;16.20;9.33;;;7.40;82.60;;;;;;5071633;28;20092;-91
2023/10/17 08:08:23;;;;;;;14.87;7.30;;;7.40;82.50;;;;;;5064955;28;20052;-90
2023/10/17 08:10:49;;;;;;;11.77;6.37;;;7.40;82.20;;;;;;5068985;28;21691;-89
2023/10/17 08:13:15;;;;;;;12.83;5.63;;;7.50;82.10;;;;;;5067626;28;20064;-91
2023/10/17 08:15:51;;;;;;;11.67;4.80;;;7.50;82.10;;;;;;5073603;28;20070;-88
2023/10/17 08:26:42;;;;;;;8.50;5.53;;;7.60;82.10;;;;;;5049432;28;20036;-89
2023/10/17 08:32:55;;;;;;;10.90;5.37;;;7.80;82.10;;;;;;5068998;28;20182;-89
2023/10/17 08:35:26;;;;;;;12.97;4.80;;;7.80;82.10;;;;;;5052593;28;20098;-87
2023/10/17 08:37:52;;;;;;;12.95;4.80;;;8.00;82.20;;;;;;5035803;28;20053;-87
2023/10/17 08:43:22;;;;;;;11.57;4.93;;;8.10;82.00;;;;;;5068098;28;20128;-87
2023/10/17 08:45:50;;;;;;;7.27;5.43;;;8.20;82.20;;;;;;5046710;28;20060;-87
2023/10/17 08:48:19;;;;;;;9.30;4.53;;;8.30;82.10;;;;;;5066507;28;20716;-94
2023/10/17 08:50:45;;;;;;;10.63;4.20;;;8.40;81.80;;;;;;5081911;28;20074;-92
2023/10/17 08:55:44;;;;;;;7.00;3.20;;;8.50;80.00;;;;;;5086811;28;20052;-91
2023/10/17 08:58:10;;;;;;;7.93;3.17;;;8.60;79.80;;;;;;5086775;28;20372;-89
2023/10/17 09:03:35;;;;;;;7.47;3.47;;;8.70;78.90;;;;;;5084990;28;20448;-89
2023/10/17 09:06:28;;;;;;;8.20;3.40;;;8.80;79.10;;;;;;5076604;28;20213;-94
2023/10/17 09:08:56;;;;;;;9.77;3.90;;;8.80;78.70;;;;;;5089924;28;20052;-88
2023/10/17 09:11:30;;;;;;;7.13;3.63;;;8.90;78.90;;;;;;5090248;28;20050;-88
2023/10/17 09:14:43;;;;;;;9.73;3.97;;;8.90;79.40;;;;;;5074897;28;20465;-89
2023/10/17 09:20:41;;;;;;;6.13;3.10;;;9.10;79.00;;;;;;5096106;28;20098;-88
2023/10/17 09:23:28;;;;;;;8.03;3.20;;;9.20;79.10;;;;;;5075179;28;20367;-88
2023/10/17 09:25:58;;;;;;;6.77;2.50;;;9.20;78.50;;;;;;5077343;28;20140;-88
2023/10/17 09:28:25;;;;;;;6.73;1.93;;;9.30;78.50;;;;;;5076812;28;20101;-89
2023/10/17 09:31:15;;;;;;;6.00;2.10;;;9.30;78.30;;;;;;5093009;28;20207;-90
2023/10/17 09:33:44;;;;;;;7.63;2.07;;;9.40;78.30;;;;;;5094108;28;20077;-89
2023/10/17 09:36:17;;;;;;;8.43;2.27;;;9.50;78.20;;;;;;5087991;28;20116;-89
2023/10/17 09:38:46;;;;;;;5.80;1.80;;;9.80;77.10;;;;;;5091355;28;20101;-87
2023/10/17 09:41:17;;;;;;;6.13;2.03;;;10.20;77.30;;;;;;5082709;28;20075;-87
2023/10/17 09:43:51;;;;;;;5.18;1.67;;;10.20;75.70;;;;;;5077782;28;20113;-93
2023/10/17 09:46:23;;;;;;;5.83;1.87;;;10.30;74.30;;;;;;5081210;28;20040;-88
2023/10/17 09:48:51;;;;;;;5.60;2.10;;;10.30;73.90;;;;;;5070328;28;21438;-90
2023/10/17 09:51:22;;;;;;;8.47;2.30;;;10.40;74.20;;;;;;5087815;28;20051;-93
2023/10/17 09:53:53;;;;;;;5.32;1.80;;;10.40;74.20;;;;;;5086781;28;20072;-93
2023/10/17 09:56:25;;;;;;;5.28;1.98;;;10.40;74.00;;;;;;5111007;27;20052;-92
2023/10/17 09:58:53;;;;;;;6.43;2.07;;;10.40;73.00;;;;;;5063509;28;20052;-89
2023/10/17 10:01:22;;;;;;;8.10;2.50;;;10.40;73.00;;;;;;5088218;28;20106;-90
2023/10/17 10:03:51;;;;;;;6.53;2.50;;;10.40;73.40;;;;;;5078817;28;20075;-90
2023/10/17 10:06:23;;;;;;;5.03;2.27;;;10.50;73.30;;;;;;5075893;28;20120;-90
2023/10/17 10:08:56;;;;;;;6.93;2.47;;;10.50;72.50;;;;;;5061722;28;20059;-89
2023/10/17 10:11:55;;;;;;;4.63;2.53;;;10.50;73.20;;;;;;5088428;28;20059;-92
2023/10/17 10:14:26;;;;;;;4.30;2.17;;;10.60;72.50;;;;;;5079712;28;20062;-90
2023/10/17 10:17:03;;;;;;;11.27;2.50;;;10.70;73.00;;;;;;5090146;28;20056;-92
2023/10/17 10:19:41;;;;;;;6.07;2.10;;;10.70;72.50;;;;;;5062754;28;20896;-91
2023/10/17 10:22:10;;;;;;;5.63;2.07;;;10.70;71.80;;;;;;5092304;28;20052;-88
2023/10/17 10:24:37;;;;;;;5.97;1.90;;;10.80;72.60;;;;;;5081758;28;20505;-87
2023/10/17 10:27:14;;;;;;;4.50;1.87;;;10.90;71.90;;;;;;5078442;28;20059;-95
2023/10/17 10:29:40;;;;;;;5.70;1.60;;;10.90;70.80;;;;;;5063273;28;20113;-90
2023/10/17 10:32:31;;;;;;;3.73;1.67;;;10.90;71.50;;;;;;5115029;27;20087;-92
2023/10/17 10:34:57;;;;;;;5.22;1.40;;;10.90;69.40;;;;;;5094659;28;20055;-87
2023/10/17 10:37:24;;;;;;;4.15;1.35;;;10.80;70.60;;;;;;5078164;28;20485;-90
2023/10/17 10:40:16;;;;;;;4.80;1.45;;;10.80;70.50;;;;;;5063686;28;20398;-90
2023/10/17 10:43:04;;;;;;;4.68;1.70;;;10.80;69.30;;;;;;5077751;28;20043;-89
2023/10/17 10:45:42;;;;;;;5.33;1.43;;;10.80;68.70;;;;;;5077468;28;20495;-90
2023/10/17 10:48:21;;;;;;;5.40;1.80;;;10.90;70.20;;;;;;5080343;28;20060;-91
2023/10/17 10:50:49;;;;;;;4.75;2.15;;;10.80;69.80;;;;;;5080314;28;20399;-90
2023/10/17 10:53:29;;;;;;;3.35;1.85;;;10.90;70.30;;;;;;5061640;28;20060;-93
2023/10/17 10:56:09;;;;;;;3.58;1.83;;;10.90;69.50;;;;;;5090360;28;20044;-90
2023/10/17 10:58:47;;;;;;;6.40;2.00;;;10.90;69.60;;;;;;5112935;27;20048;-91
2023/10/17 11:01:14;;;;;;;5.72;2.10;;;11.00;70.30;;;;;;5110104;27;20048;-89
2023/10/17 11:03:41;;;;;;;5.30;2.30;;;11.10;70.30;;;;;;5060861;28;20051;-92
2023/10/17 11:06:09;;;;;;;6.32;2.22;;;11.10;70.20;;;;;;5061481;28;20084;-90
2023/10/17 11:08:40;;;;;;;3.97;2.22;;;11.10;69.70;;;;;;4183174;28;10001017;-94
2023/10/17 11:11:09;;;;;;;5.35;2.08;;;11.20;69.70;;;;;;5037134;28;20056;-95
2023/10/17 11:13:37;;;;;;;4.18;2.20;;;11.30;70.40;;;;;;5027327;28;20063;-92
2023/10/17 11:16:06;;;;;;;5.38;2.08;;;11.40;69.80;;;;;;5056517;28;20063;-92
2023/10/17 11:18:43;;;;;;;4.32;2.38;;;11.40;69.80;;;;;;5058043;28;20125;-94
2023/10/17 11:21:09;;;;;;;3.78;2.00;;;11.50;69.20;;;;;;5024331;28;20044;-90
2023/10/17 11:23:40;;;;;;;5.47;2.55;;;11.50;70.00;;;;;;5023196;28;20059;-91
2023/10/17 11:26:12;;;;;;;5.95;2.33;;;11.50;69.50;;;;;;5039797;28;20101;-91
2023/10/17 11:28:46;;;;;;;;;;;11.50;69.10;;;;;;5023842;28;20125;-91
2023/10/17 11:31:24;;;;;;;7.68;2.15;;;11.50;68.30;;;;;;5022524;28;19928;-91
2023/10/17 11:33:59;;;;;;;4.63;2.30;;;11.50;69.80;;;;;;5027786;28;20063;-89
2023/10/17 11:36:35;;;;;;;5.47;2.55;;;11.60;69.40;;;;;;5018787;28;20082;-93
2023/10/17 11:39:05;;;;;;;5.22;2.15;;;11.50;69.30;;;;;;5022712;28;20167;-91
2023/10/17 11:41:39;;;;;;;3.92;2.00;;;11.60;69.00;;;;;;5020092;28;20048;-91
2023/10/17 11:44:06;;;;;;;5.22;2.00;;;11.50;68.40;;;;;;5021502;28;20074;-95
2023/10/17 11:46:33;;;;;;;5.40;2.38;;;11.50;68.20;;;;;;5040869;28;20050;-89
2023/10/17 11:49:26;;;;;;;4.53;2.05;;;11.50;68.70;;;;;;5039109;28;20140;-93
2023/10/17 11:52:14;;;;;;;7.07;2.33;;;11.50;66.90;;;;;;5036923;28;20920;-87
2023/10/17 11:54:55;;;;;;;6.50;2.03;;;11.50;67.50;;;;;;5040649;28;20053;-91
2023/10/17 11:57:25;;;;;;;4.70;1.67;;;11.50;67.40;;;;;;5039914;28;20075;-93
2023/10/17 11:59:58;;;;;;;5.63;2.08;;;11.50;68.00;;;;;;5072436;28;20059;-88
2023/10/17 12:02:25;;;;;;;4.30;2.10;;;11.50;68.00;;;;;;5039304;28;20045;-88
2023/10/17 12:04:50;;;;;;;7.40;2.10;;;11.50;68.60;;;;;;5040835;28;20101;-90
2023/10/17 12:07:17;;;;;;;5.00;2.10;;;11.60;68.00;;;;;;5054100;28;20135;-91
2023/10/17 12:09:43;;;;;;;6.25;2.15;;;11.60;67.70;;;;;;5037213;28;20052;-92
2023/10/17 12:12:09;;;;;;;4.82;2.05;;;11.70;67.60;;;;;;5035338;28;20114;-90
2023/10/17 12:14:35;;;;;;;5.00;2.08;;;11.70;67.20;;;;;;5070663;28;20170;-90
2023/10/17 12:17:02;;;;;;;5.10;2.25;;;11.70;67.00;;;;;;5038732;28;20061;-90
2023/10/17 12:19:28;;;;;;;5.82;2.42;;;11.70;67.30;;;;;;5036201;28;20083;-94
2023/10/17 12:21:55;;;;;;;5.00;2.00;;;11.70;67.70;;;;;;5039287;28;20056;-88
2023/10/17 12:24:28;;;;;;;4.40;1.95;;;11.70;67.50;;;;;;5023417;28;20062;-93
2023/10/17 12:26:55;;;;;;;3.83;1.70;;;11.70;67.30;;;;;;5073319;28;20056;-91
2023/10/17 12:29:25;;;;;;;6.78;2.80;;;11.60;67.50;;;;;;5040753;28;20052;-89
2023/10/17 12:31:53;;;;;;;4.68;2.05;;;11.60;67.70;;;;;;5022860;28;20143;-91
2023/10/17 12:34:19;;;;;;;5.20;2.15;;;11.50;67.70;;;;;;5022851;28;20056;-91
2023/10/17 12:36:46;;;;;;;4.82;1.80;;;11.60;67.50;;;;;;5037348;28;20129;-91
2023/10/17 12:39:12;;;;;;;6.47;2.20;;;11.60;67.10;;;;;;5024387;28;20055;-91
2023/10/17 12:41:39;;;;;;;5.78;2.13;;;11.60;67.60;;;;;;5070485;28;20896;-93
2023/10/17 12:44:05;;;;;;;5.82;2.10;;;11.70;67.20;;;;;;5020973;28;20052;-90
2023/10/17 12:46:31;;;;;;;6.68;1.90;;;11.60;67.50;;;;;;5037686;28;20052;-89
2023/10/17 12:48:57;;;;;;;4.35;2.15;;;11.70;67.80;;;;;;5038627;28;20140;-89
2023/10/17 12:51:23;;;;;;;5.32;2.00;;;11.60;67.30;;;;;;5022282;28;20040;-91
2023/10/17 12:53:51;;;;;;;4.25;1.83;;;11.60;67.30;;;;;;5068037;28;20118;-89
2023/10/17 12:56:17;;;;;;;4.70;1.52;;;11.50;67.60;;;;;;5036432;28;20092;-91
2023/10/17 12:58:44;;;;;;;4.43;1.90;;;11.50;67.20;;;;;;5036420;28;20139;-89
2023/10/17 13:01:12;;;;;;;6.93;1.85;;;11.50;67.20;;;;;;5038427;28;20059;-91
2023/10/17 13:03:38;;;;;;;8.25;1.92;;;11.50;67.50;;;;;;5056723;28;20468;-92
2023/10/17 13:06:10;;;;;;;5.50;1.83;;;11.50;67.60;;;;;;5073582;28;20049;-93
2023/10/17 13:08:37;;;;;;;4.72;2.00;;;11.50;67.50;;;;;;5074006;28;20062;-92
2023/10/17 13:11:03;;;;;;;5.40;1.92;;;11.50;66.90;;;;;;5072838;28;20063;-93
2023/10/17 13:13:32;;;;;;;3.75;1.92;;;11.50;67.20;;;;;;5042329;28;20114;-95
2023/10/17 13:15:59;;;;;;;3.17;1.73;;;11.50;66.70;;;;;;5033832;28;20134;-92
2023/10/17 13:18:28;;;;;;;5.22;1.90;;;11.50;67.10;;;;;;5040206;28;20476;-91
2023/10/17 13:20:57;;;;;;;4.53;1.42;;;11.40;66.80;;;;;;5020808;28;20086;-94
2023/10/17 13:23:23;;;;;;;4.35;1.85;;;11.40;66.80;;;;;;5035423;28;20124;-90
2023/10/17 13:25:49;;;;;;;4.45;1.85;;;11.40;67.00;;;;;;5068259;28;20431;-93
2023/10/17 13:28:16;;;;;;;4.40;1.80;;;11.40;67.00;;;;;;5034136;28;20052;-93
2023/10/17 13:30:42;;;;;;;4.20;1.95;;;11.40;66.90;;;;;;5067031;28;20045;-90
2023/10/17 13:33:07;;;;;;;7.00;2.17;;;11.40;66.80;;;;;;5037455;28;20059;-90
2023/10/17 13:35:37;;;;;;;6.90;2.25;;;11.40;67.10;;;;;;5037357;28;20496;-91
2023/10/17 13:38:03;;;;;;;4.00;2.47;;;11.40;67.30;;;;;;5017725;28;20049;-92
2023/10/17 13:40:32;;;;;;;2.65;1.88;;;11.30;67.40;;;;;;5036918;28;20044;-87
2023/10/17 13:43:00;;;;;;;3.67;2.03;;;11.40;67.20;;;;;;5033085;28;20519;-88
2023/10/17 13:45:35;;;;;;;4.32;1.80;;;11.30;66.70;;;;;;5039205;28;20052;-94
2023/10/17 13:48:00;;;;;;;4.20;2.08;;;11.30;66.70;;;;;;5019613;28;20049;-91
2023/10/17 13:50:26;;;;;;;3.85;2.08;;;11.30;67.10;;;;;;5022855;28;20052;-91
2023/10/17 13:53:06;;;;;;;6.22;1.90;;;11.30;67.20;;;;;;5042121;28;20113;-92
2023/10/17 13:55:35;;;;;;;5.90;2.10;;;11.30;66.90;;;;;;5043838;28;20053;-90
2023/10/17 13:58:03;;;;;;;6.32;1.88;;;11.30;66.90;;;;;;5038826;28;20901;-91
2023/10/17 14:00:46;;;;;;;4.13;1.80;;;11.30;67.10;;;;;;5056258;28;20048;-93
2023/10/17 14:03:13;;;;;;;8.32;2.22;;;11.30;66.80;;;;;;5041342;28;20428;-88
2023/10/17 14:05:48;;;;;;;7.45;2.13;;;11.30;66.60;;;;;;5039691;28;20049;-90
2023/10/17 14:08:15;;;;;;;4.00;2.08;;;11.30;66.70;;;;;;5054113;28;20399;-91
2023/10/17 14:10:46;;;;;;;5.65;1.83;;;11.30;66.60;;;;;;5071432;28;20049;-91
2023/10/17 14:13:12;;;;;;;4.38;2.50;;;11.30;66.90;;;;;;5035456;28;20435;-86
2023/10/17 14:15:42;;;;;;;2.78;1.95;;;11.30;67.20;;;;;;5024708;28;20168;-93
2023/10/17 14:18:14;;;;;;;5.15;2.15;;;11.30;66.90;;;;;;5021489;28;20093;-88
2023/10/17 14:23:45;;;;;;;4.43;1.67;;;11.30;67.00;;;;;;5054012;28;20053;-91
2023/10/17 14:26:11;;;;;;;2.53;1.27;;;11.30;67.00;;;;;;5001223;28;20045;-91
2023/10/17 14:28:37;;;;;;;4.45;2.03;;;11.30;67.20;;;;;;5019624;28;20184;-88
2023/10/17 14:31:09;;;;;;;5.60;1.95;;;11.20;67.20;;;;;;5016678;28;20057;-93
2023/10/17 14:33:35;;;;;;;5.03;1.58;;;11.20;67.10;;;;;;5002726;28;20136;-89
2023/10/17 14:36:05;;;;;;;2.10;1.10;;;11.20;67.20;;;;;;5004122;28;20041;-86
2023/10/17 14:38:34;;;;;;;5.57;1.42;;;11.20;66.50;;;;;;5017918;28;20045;-91
2023/10/17 14:41:10;;;;;;;4.78;1.50;;;11.10;66.80;;;;;;5017997;28;20111;-90
2023/10/17 14:43:36;;;;;;;4.68;1.38;;;11.10;66.70;;;;;;5000220;28;20255;-88
2023/10/17 14:46:02;;;;;;;4.43;1.52;;;11.10;66.80;;;;;;5016758;28;20050;-87
2023/10/17 14:48:30;;;;;;;5.05;2.03;;;11.10;66.90;;;;;;5016654;28;20041;-88
2023/10/17 14:50:55;;;;;;;4.50;1.92;;;11.10;66.80;;;;;;5018717;28;20049;-94
2023/10/17 14:53:21;;;;;;;4.60;1.92;;;11.10;66.70;;;;;;5011941;28;20041;-88
2023/10/17 14:55:58;;;;;;;4.40;1.23;;;11.20;67.00;;;;;;5018889;28;20400;-94
2023/10/17 14:58:24;;;;;;;5.35;1.85;;;11.20;66.50;;;;;;5013964;28;20056;-91
2023/10/17 15:00:53;;;;;;;5.07;2.45;;;11.20;66.60;;;;;;5000662;28;20567;-90
2023/10/17 15:03:20;;;;;;;2.65;2.03;;;11.20;66.40;;;;;;5019712;28;20057;-86
2023/10/17 15:05:45;;;;;;;4.20;1.80;;;11.20;66.10;;;;;;5018855;28;20045;-90
2023/10/17 15:08:11;;;;;;;4.90;2.28;;;11.10;66.50;;;;;;4994844;28;20056;-91
2023/10/17 15:10:40;;;;;;;5.72;2.75;;;11.20;66.80;;;;;;5011518;28;20057;-91
2023/10/17 15:13:11;;;;;;;3.30;1.85;;;11.20;67.20;;;;;;5009907;28;20057;-89
2023/10/17 15:15:38;;;;;;;4.78;1.77;;;11.20;67.40;;;;;;5041961;28;20068;-96
2023/10/17 15:18:04;;;;;;;2.70;1.58;;;11.20;67.30;;;;;;5022218;28;20049;-95
2023/10/17 15:20:30;;;;;;;4.88;1.40;;;11.20;67.30;;;;;;5041721;28;20053;-92
2023/10/17 15:22:58;;;;;;;4.28;1.70;;;11.10;67.10;;;;;;5050843;28;20173;-92
2023/10/17 15:25:23;;;;;;;4.72;1.83;;;11.20;67.30;;;;;;5048288;28;20541;-91
2023/10/17 15:27:50;;;;;;;5.82;2.88;;;11.20;67.40;;;;;;5063591;28;20041;-91
2023/10/17 15:30:18;;;;;;;7.80;3.65;;;11.10;67.60;;;;;;5014443;28;20090;-93
2023/10/17 15:32:45;;;;;;;6.60;2.33;;;11.10;67.80;;;;;;5033420;28;21492;-92
2023/10/17 15:35:13;;;;;;;4.80;2.13;;;11.10;67.90;;;;;;5051726;28;20140;-91
2023/10/17 15:37:47;;;;;;;7.05;2.20;;;11.10;68.00;;;;;;5051608;28;20107;-91
2023/10/17 15:40:21;;;;;;;6.15;2.22;;;11.10;67.90;;;;;;5034839;28;20806;-89
2023/10/17 15:42:50;;;;;;;4.15;1.35;;;11.00;68.00;;;;;;5034713;28;20140;-88
2023/10/17 15:45:19;;;;;;;3.00;1.75;;;10.90;67.90;;;;;;5035985;28;20147;-93
2023/10/17 15:47:48;;;;;;;4.03;1.70;;;10.90;68.00;;;;;;5034528;28;20175;-90
2023/10/17 15:50:18;;;;;;;3.05;1.55;;;10.80;68.20;;;;;;5068615;28;20048;-90
2023/10/17 15:52:51;;;;;;;4.70;1.63;;;10.80;68.40;;;;;;5034884;28;20091;-90
2023/10/17 15:55:17;;;;;;;4.80;1.88;;;10.70;68.60;;;;;;5018906;28;20484;-90
2023/10/17 15:57:44;;;;;;;2.65;1.35;;;10.60;68.70;;;;;;5021649;28;20092;-94
2023/10/17 16:00:21;;;;;;;2.63;1.70;;;10.50;68.80;;;;;;5021612;28;20112;-90
2023/10/17 16:02:47;;;;;;;4.00;1.63;;;10.40;69.00;;;;;;5021423;28;20492;-91
2023/10/17 16:05:14;;;;;;;4.10;1.75;;;10.40;69.10;;;;;;5039032;28;20053;-90
2023/10/17 16:07:41;;;;;;;2.53;1.48;;;10.30;69.30;;;;;;5071883;28;20076;-89
2023/10/17 16:10:14;;;;;;;5.93;1.55;;;10.20;69.50;;;;;;5021074;28;20060;-92
2023/10/17 16:12:41;;;;;;;4.45;1.42;;;10.10;69.60;;;;;;5039051;28;20063;-89
2023/10/17 16:15:08;;;;;;;2.75;1.50;;;10.10;69.40;;;;;;5053438;28;21385;-93
2023/10/17 16:17:35;;;;;;;4.03;1.47;;;10.00;69.50;;;;;;5039254;28;20053;-90
2023/10/17 16:20:08;;;;;;;3.90;1.58;;;10.00;69.70;;;;;;5038356;28;20056;-89
2023/10/17 16:22:35;;;;;;;3.25;1.13;;;9.90;69.70;;;;;;5038062;28;20098;-90